Time,TemperatureF,DewpointF,PressureIn,WindDirection,WindDirectionDegrees,WindSpeedMPH,WindSpeedGustMPH,Humidity,HourlyPrecipIn,Conditions,Clouds,dailyrainin,SoftwareType,DateUTC
2013-02-27 00:04:00,28.4,24.2,29.86,NW,313,3.5,3.5,84,0.00,OVC,OVC,0.00,WeatherDisplay:10.37,2013-02-27 06:04:00,
2013-02-27 00:09:00,28.4,24.2,29.85,NW,326,2.3,2.3,84,0.00,OVC,OVC,0.00,WeatherDisplay:10.37,2013-02-27 06:09:00,
2013-02-27 00:14:00,28.4,24.2,29.85,NW,315,4.0,4.0,84,0.00,OVC,OVC,0.00,WeatherDisplay:10.37,2013-02-27 06:14:00,
2013-02-27 00:20:00,28.3,24.1,29.85,NNW,334,4.0,4.0,84,0.00,OVC,OVC,0.00,WeatherDisplay:10.37,2013-02-27 06:20:00,
2013-02-27 00:25:00,28.3,24.1,29.85,NW,309,3.5,3.5,84,0.00,OVC,OVC,0.00,WeatherDisplay:10.37,2013-02-27 06:25:00,
2013-02-27 00:30:00,28.3,24.1,29.85,NW,311,5.8,5.8,84,0.00,OVC,OVC,0.00,WeatherDisplay:10.37,2013-02-27 06:30:00,
2013-02-27 00:35:00,28.2,24.0,29.85,NW,316,4.6,4.6,84,0.00,OVC,OVC,0.00,WeatherDisplay:10.37,2013-02-27 06:35:00,
2013-02-27 00:41:00,28.2,24.0,29.85,West,280,3.0,3.0,84,0.00,OVC,OVC,0.00,WeatherDisplay:10.37,2013-02-27 06:41:00,
2013-02-27 00:46:00,28.1,23.9,29.85,NNW,340,6.9,6.9,84,0.00,OVC,OVC,0.00,WeatherDisplay:10.37,2013-02-27 06:46:00,
2013-02-27 00:51:00,28.1,23.9,29.85,NW,311,5.8,5.8,84,0.00,OVC,OVC,0.00,WeatherDisplay:10.37,2013-02-27 06:51:00,
2013-02-27 00:56:00,28.1,23.9,29.85,NW,306,3.5,3.5,84,0.00,OVC,OVC,0.00,WeatherDisplay:10.37,2013-02-27 06:56:00,
2013-02-27 01:02:00,28.1,23.9,29.85,NW,316,3.5,3.5,84,0.00,OVC,OVC,0.00,WeatherDisplay:10.37,2013-02-27 07:02:00,
2013-02-27 01:07:00,28.1,23.9,29.85,NW,306,3.5,3.5,84,0.00,OVC,OVC,0.00,WeatherDisplay:10.37,2013-02-27 07:07:00,
2013-02-27 01:12:00,28.0,23.8,29.85,NW,324,3.0,3.0,84,0.00,OVC,OVC,0.00,WeatherDisplay:10.37,2013-02-27 07:12:00,
2013-02-27 01:17:00,28.0,23.8,29.85,WNW,300,3.5,3.5,84,0.00,OVC,OVC,0.00,WeatherDisplay:10.37,2013-02-27 07:17:00,
2013-02-27 01:23:00,28.0,23.8,29.85,NW,314,0.0,0.0,84,0.00,OVC,OVC,0.00,WeatherDisplay:10.37,2013-02-27 07:23:00,
2013-02-27 01:28:00,28.0,23.8,29.85,NNW,333,2.3,2.3,84,0.00,OVC,OVC,0.00,WeatherDisplay:10.37,2013-02-27 07:28:00,
2013-02-27 01:33:00,28.0,23.8,29.85,WNW,300,0.0,0.0,84,0.00,OVC,OVC,0.00,WeatherDisplay:10.37,2013-02-27 07:33:00,
2013-02-27 01:39:00,28.0,23.8,29.84,NW,315,2.3,0.0,84,0.00,OVC,OVC,0.00,WeatherDisplay:10.37,2013-02-27 07:39:00,
2013-02-27 01:44:00,28.0,23.8,29.84,NW,321,3.5,3.5,84,0.00,OVC,OVC,0.00,WeatherDisplay:10.37,2013-02-27 07:44:00,
2013-02-27 01:49:00,27.9,23.7,29.84,NNW,338,4.0,4.0,84,0.00,OVC,OVC,0.00,WeatherDisplay:10.37,2013-02-27 07:49:00,
2013-02-27 01:54:00,27.9,23.7,29.84,NW,317,3.5,3.5,84,0.00,OVC,OVC,0.00,WeatherDisplay:10.37,2013-02-27 07:54:00,
2013-02-27 01:59:00,27.8,23.6,29.84,WNW,299,3.5,3.5,84,0.00,OVC,OVC,0.00,WeatherDisplay:10.37,2013-02-27 07:59:00,
2013-02-27 02:04:00,27.8,23.6,29.84,WNW,290,4.0,4.0,84,0.00,OVC,OVC,0.00,WeatherDisplay:10.37,2013-02-27 08:04:00,
2013-02-27 02:10:00,27.6,23.4,29.84,NW,313,3.5,3.5,84,0.00,OVC,OVC,0.00,WeatherDisplay:10.37,2013-02-27 08:10:00,
2013-02-27 02:15:00,27.6,23.4,29.84,NNW,334,2.3,2.3,84,0.00,OVC,OVC,0.00,WeatherDisplay:10.37,2013-02-27 08:15:00,
2013-02-27 02:20:00,27.5,23.3,29.84,WNW,296,5.8,5.8,84,0.00,OVC,OVC,0.00,WeatherDisplay:10.37,2013-02-27 08:20:00,
2013-02-27 02:26:00,27.3,23.1,29.85,NNW,332,4.6,0.0,84,0.00,OVC,OVC,0.00,WeatherDisplay:10.37,2013-02-27 08:26:00,
2013-02-27 02:31:00,27.3,22.8,29.85,NW,320,4.0,4.0,83,0.00,OVC,OVC,0.00,WeatherDisplay:10.37,2013-02-27 08:31:00,
2013-02-27 02:36:00,27.2,22.7,29.85,WNW,296,3.5,3.5,83,0.00,OVC,OVC,0.00,WeatherDisplay:10.37,2013-02-27 08:36:00,
2013-02-27 02:41:00,27.1,22.9,29.85,WNW,294,4.6,4.6,84,0.00,OVC,OVC,0.00,WeatherDisplay:10.37,2013-02-27 08:41:00,
2013-02-27 02:46:00,27.0,22.5,29.85,NW,319,5.0,5.0,83,0.00,OVC,OVC,0.00,WeatherDisplay:10.37,2013-02-27 08:46:00,
2013-02-27 02:52:00,27.0,22.5,29.85,NW,305,4.6,4.6,83,0.00,OVC,OVC,0.00,WeatherDisplay:10.37,2013-02-27 08:52:00,
2013-02-27 02:57:00,26.9,22.4,29.85,WNW,291,3.5,3.5,83,0.00,OVC,OVC,0.00,WeatherDisplay:10.37,2013-02-27 08:57:00,
2013-02-27 03:02:00,26.9,22.4,29.85,NW,326,2.3,0.0,83,0.00,OVC,OVC,0.00,WeatherDisplay:10.37,2013-02-27 09:02:00,
2013-02-27 03:08:00,26.8,22.3,29.85,North,5,5.8,5.8,83,0.00,OVC,OVC,0.00,WeatherDisplay:10.37,2013-02-27 09:08:00,
2013-02-27 03:13:00,26.7,22.2,29.85,WNW,291,6.0,6.0,83,0.00,OVC,OVC,0.00,WeatherDisplay:10.37,2013-02-27 09:13:00,
2013-02-27 03:18:00,26.7,22.2,29.85,WNW,303,4.6,4.6,83,0.00,OVC,OVC,0.00,WeatherDisplay:10.37,2013-02-27 09:18:00,
2013-02-27 03:23:00,26.7,22.2,29.85,WNW,300,3.5,3.5,83,0.00,OVC,OVC,0.00,WeatherDisplay:10.37,2013-02-27 09:23:00,
2013-02-27 03:29:00,26.6,22.1,29.85,North,9,4.0,4.0,83,0.00,OVC,OVC,0.00,WeatherDisplay:10.37,2013-02-27 09:29:00,
2013-02-27 03:34:00,26.6,22.1,29.85,NNE,13,3.5,3.5,83,0.00,OVC,OVC,0.00,WeatherDisplay:10.37,2013-02-27 09:34:00,
2013-02-27 03:39:00,26.7,22.2,29.85,NW,325,4.6,4.6,83,0.00,OVC,OVC,0.00,WeatherDisplay:10.37,2013-02-27 09:39:00,
2013-02-27 03:44:00,26.6,22.1,29.85,NW,313,4.6,4.6,83,0.00,OVC,OVC,0.00,WeatherDisplay:10.37,2013-02-27 09:44:00,
2013-02-27 03:49:00,26.6,22.1,29.85,NW,326,3.5,3.5,83,0.00,OVC,OVC,0.00,WeatherDisplay:10.37,2013-02-27 09:49:00,
2013-02-27 03:55:00,26.6,22.1,29.85,NW,325,3.5,3.5,83,0.00,OVC,OVC,0.00,WeatherDisplay:10.37,2013-02-27 09:55:00,
2013-02-27 04:00:00,26.6,22.1,29.86,WNW,295,9.2,9.2,83,0.00,OVC,OVC,0.00,WeatherDisplay:10.37,2013-02-27 10:00:00,
2013-02-27 04:05:00,26.6,22.1,29.86,NNW,333,3.5,3.5,83,0.00,OVC,OVC,0.00,WeatherDisplay:10.37,2013-02-27 10:05:00,
2013-02-27 04:11:00,26.6,22.1,29.85,West,279,5.0,5.0,83,0.00,OVC,OVC,0.00,WeatherDisplay:10.37,2013-02-27 10:11:00,
2013-02-27 04:17:00,26.5,22.0,29.86,NNE,18,3.5,3.5,83,0.00,OVC,OVC,0.00,WeatherDisplay:10.37,2013-02-27 10:17:00,
2013-02-27 04:22:00,26.5,22.0,29.86,WSW,255,5.8,5.8,83,0.00,OVC,OVC,0.00,WeatherDisplay:10.37,2013-02-27 10:22:00,
2013-02-27 04:27:00,26.4,21.9,29.86,NNW,330,4.6,4.6,83,0.00,OVC,OVC,0.00,WeatherDisplay:10.37,2013-02-27 10:27:00,
2013-02-27 04:32:00,26.4,21.9,29.86,WNW,295,3.5,3.5,83,0.00,OVC,OVC,0.00,WeatherDisplay:10.37,2013-02-27 10:32:00,
2013-02-27 04:37:00,26.3,21.8,29.85,WNW,292,3.5,3.5,83,0.00,OVC,OVC,0.00,WeatherDisplay:10.37,2013-02-27 10:37:00,
2013-02-27 04:42:00,26.3,21.8,29.86,NW,305,3.5,3.5,83,0.00,OVC,OVC,0.00,WeatherDisplay:10.37,2013-02-27 10:42:00,
2013-02-27 04:48:00,26.3,21.8,29.86,WNW,300,5.8,5.8,83,0.00,OVC,OVC,0.00,WeatherDisplay:10.37,2013-02-27 10:48:00,
2013-02-27 04:53:00,26.3,21.8,29.85,NNW,333,3.5,3.5,83,0.00,OVC,OVC,0.00,WeatherDisplay:10.37,2013-02-27 10:53:00,
2013-02-27 04:58:00,26.3,21.8,29.86,WNW,286,4.6,4.6,83,0.00,OVC,OVC,0.00,WeatherDisplay:10.37,2013-02-27 10:58:00,
2013-02-27 05:03:00,26.2,21.7,29.86,NW,315,2.3,2.3,83,0.00,OVC,OVC,0.00,WeatherDisplay:10.37,2013-02-27 11:03:00,
2013-02-27 05:09:00,26.2,21.7,29.86,NW,305,2.3,2.3,83,0.00,OVC,OVC,0.00,WeatherDisplay:10.37,2013-02-27 11:09:00,
2013-02-27 05:14:00,26.2,21.7,29.86,NW,320,3.5,3.5,83,0.00,OVC,OVC,0.00,WeatherDisplay:10.37,2013-02-27 11:14:00,
2013-02-27 05:19:00,26.1,21.6,29.86,NW,311,4.6,4.6,83,0.00,OVC,OVC,0.00,WeatherDisplay:10.37,2013-02-27 11:19:00,
2013-02-27 05:24:00,26.1,21.6,29.86,NW,314,5.0,5.0,83,0.00,OVC,OVC,0.00,WeatherDisplay:10.37,2013-02-27 11:24:00,
2013-02-27 05:30:00,26.0,21.5,29.86,WNW,289,2.3,0.0,83,0.00,OVC,OVC,0.00,WeatherDisplay:10.37,2013-02-27 11:30:00,
2013-02-27 05:35:00,26.0,21.5,29.86,WNW,287,1.2,1.2,83,0.00,OVC,OVC,0.00,WeatherDisplay:10.37,2013-02-27 11:35:00,
2013-02-27 05:40:00,25.9,21.4,29.86,NNW,336,1.2,1.2,83,0.00,OVC,OVC,0.00,WeatherDisplay:10.37,2013-02-27 11:40:00,
2013-02-27 05:46:00,25.8,21.3,29.86,West,266,4.0,4.0,83,0.00,OVC,OVC,0.00,WeatherDisplay:10.37,2013-02-27 11:46:00,
2013-02-27 05:51:00,25.7,21.3,29.86,NNW,340,6.9,6.9,83,0.00,OVC,OVC,0.00,WeatherDisplay:10.37,2013-02-27 11:51:00,
2013-02-27 05:56:00,25.7,21.3,29.86,North,5,4.6,4.6,83,0.00,OVC,OVC,0.00,WeatherDisplay:10.37,2013-02-27 11:56:00,
2013-02-27 06:01:00,25.6,21.2,29.86,WNW,293,2.0,2.0,83,0.00,OVC,OVC,0.00,WeatherDisplay:10.37,2013-02-27 12:01:00,
2013-02-27 06:07:00,25.6,21.2,29.86,WNW,288,3.5,3.5,83,0.00,OVC,OVC,0.00,WeatherDisplay:10.37,2013-02-27 12:07:00,
2013-02-27 06:12:00,25.6,21.2,29.86,NNW,329,2.3,2.3,83,0.00,OVC,OVC,0.00,WeatherDisplay:10.37,2013-02-27 12:12:00,
2013-02-27 06:17:00,25.6,21.2,29.86,WNW,287,5.0,5.0,83,0.00,OVC,OVC,0.00,WeatherDisplay:10.37,2013-02-27 12:17:00,
2013-02-27 06:22:00,25.6,21.2,29.86,NNW,333,2.3,2.3,83,0.00,OVC,OVC,0.00,WeatherDisplay:10.37,2013-02-27 12:22:00,
2013-02-27 06:28:00,25.5,21.1,29.86,NNW,344,0.0,0.0,83,0.00,OVC,OVC,0.00,WeatherDisplay:10.37,2013-02-27 12:28:00,
2013-02-27 06:33:00,25.5,21.1,29.86,WNW,299,3.5,3.5,83,0.00,OVC,OVC,0.00,WeatherDisplay:10.37,2013-02-27 12:33:00,
2013-02-27 06:38:00,25.5,21.1,29.86,NNW,333,1.2,1.2,83,0.00,OVC,OVC,0.00,WeatherDisplay:10.37,2013-02-27 12:38:00,
2013-02-27 06:43:00,25.5,21.1,29.86,NW,319,2.3,2.3,83,0.00,OVC,OVC,0.00,WeatherDisplay:10.37,2013-02-27 12:43:00,
2013-02-27 06:49:00,25.5,21.1,29.86,NNW,334,2.3,0.0,83,0.00,OVC,OVC,0.00,WeatherDisplay:10.37,2013-02-27 12:49:00,
2013-02-27 06:54:00,25.5,21.1,29.86,NW,326,1.2,0.0,83,0.00,OVC,OVC,0.00,WeatherDisplay:10.37,2013-02-27 12:54:00,
2013-02-27 06:59:00,25.4,21.0,29.86,WNW,302,3.5,3.5,83,0.00,OVC,OVC,0.00,WeatherDisplay:10.37,2013-02-27 12:59:00,
2013-02-27 07:04:00,25.4,21.0,29.86,West,280,3.5,3.5,83,0.00,OVC,OVC,0.00,WeatherDisplay:10.37,2013-02-27 13:04:00,
2013-02-27 07:10:00,25.4,21.0,29.86,NNW,334,1.2,0.0,83,0.00,OVC,OVC,0.00,WeatherDisplay:10.37,2013-02-27 13:10:00,
2013-02-27 07:15:00,25.4,21.0,29.87,NNW,348,3.5,3.5,83,0.00,OVC,OVC,0.00,WeatherDisplay:10.37,2013-02-27 13:15:00,
2013-02-27 07:20:00,25.5,21.1,29.87,WNW,301,3.5,3.5,83,0.00,OVC,OVC,0.00,WeatherDisplay:10.37,2013-02-27 13:20:00,
2013-02-27 07:25:00,25.5,21.1,29.87,WNW,294,2.0,2.0,83,0.00,OVC,OVC,0.00,WeatherDisplay:10.37,2013-02-27 13:25:00,
2013-02-27 07:31:00,25.5,21.1,29.87,NW,304,1.2,0.0,83,0.00,OVC,OVC,0.00,WeatherDisplay:10.37,2013-02-27 13:31:00,
2013-02-27 07:36:00,25.6,21.2,29.88,WNW,296,2.3,2.3,83,0.00,OVC,OVC,0.00,WeatherDisplay:10.37,2013-02-27 13:36:00,
2013-02-27 07:41:00,25.6,21.2,29.88,WNW,292,3.5,3.5,83,0.00,OVC,OVC,0.00,WeatherDisplay:10.37,2013-02-27 13:41:00,
2013-02-27 07:46:00,25.6,21.2,29.88,WNW,294,4.6,4.6,83,0.00,OVC,OVC,0.00,WeatherDisplay:10.37,2013-02-27 13:46:00,
2013-02-27 07:51:00,25.6,21.2,29.88,NNW,346,3.5,3.5,83,0.00,OVC,OVC,0.00,WeatherDisplay:10.37,2013-02-27 13:51:00,
2013-02-27 07:56:00,25.6,21.2,29.88,WNW,287,3.5,3.5,83,0.00,OVC,OVC,0.00,WeatherDisplay:10.37,2013-02-27 13:56:00,
2013-02-27 08:01:00,25.6,21.2,29.89,North,350,4.6,4.6,83,0.00,OVC,OVC,0.00,WeatherDisplay:10.37,2013-02-27 14:01:00,
2013-02-27 08:06:00,25.6,21.2,29.89,NNW,330,3.5,3.5,83,0.00,OVC,OVC,0.00,WeatherDisplay:10.37,2013-02-27 14:06:00,
2013-02-27 08:12:00,25.6,21.2,29.89,WNW,284,4.0,4.0,83,0.00,OVC,OVC,0.00,WeatherDisplay:10.37,2013-02-27 14:12:00,
2013-02-27 08:17:00,25.7,21.3,29.89,NNW,327,1.2,1.2,83,0.00,OVC,OVC,0.00,WeatherDisplay:10.37,2013-02-27 14:17:00,
2013-02-27 08:22:00,25.8,21.3,29.89,WNW,282,3.5,3.5,83,0.00,OVC,OVC,0.00,WeatherDisplay:10.37,2013-02-27 14:22:00,
2013-02-27 08:27:00,25.9,21.4,29.89,NNW,335,3.5,3.5,83,0.00,OVC,OVC,0.00,WeatherDisplay:10.37,2013-02-27 14:27:00,
2013-02-27 08:33:00,26.0,21.5,29.89,NNW,327,3.5,3.5,83,0.00,OVC,OVC,0.00,WeatherDisplay:10.37,2013-02-27 14:33:00,
2013-02-27 08:38:00,26.1,21.6,29.89,NW,321,3.5,3.5,83,0.00,OVC,OVC,0.00,WeatherDisplay:10.37,2013-02-27 14:38:00,
2013-02-27 08:43:00,26.2,21.7,29.89,NW,309,4.6,4.6,83,0.00,OVC,OVC,0.00,WeatherDisplay:10.37,2013-02-27 14:43:00,
2013-02-27 08:49:00,26.2,21.7,29.89,NW,325,3.5,3.5,83,0.00,OVC,OVC,0.00,WeatherDisplay:10.37,2013-02-27 14:49:00,
2013-02-27 08:54:00,26.3,21.8,29.89,NW,322,5.0,5.0,83,0.00,OVC,OVC,0.00,WeatherDisplay:10.37,2013-02-27 14:54:00,
2013-02-27 08:59:00,26.3,21.8,29.89,NW,310,3.5,3.5,83,0.00,OVC,OVC,0.00,WeatherDisplay:10.37,2013-02-27 14:59:00,
2013-02-27 09:04:00,26.5,22.0,29.89,NNW,336,6.0,6.0,83,0.00,OVC,OVC,0.00,WeatherDisplay:10.37,2013-02-27 15:04:00,
2013-02-27 09:10:00,26.5,22.0,29.89,WNW,295,2.3,2.3,83,0.00,OVC,OVC,0.00,WeatherDisplay:10.37,2013-02-27 15:10:00,
2013-02-27 09:15:00,26.7,22.2,29.89,NNW,329,3.5,3.5,83,0.00,OVC,OVC,0.00,WeatherDisplay:10.37,2013-02-27 15:15:00,
2013-02-27 09:20:00,26.9,22.4,29.89,NW,321,2.3,2.3,83,0.00,OVC,OVC,0.00,WeatherDisplay:10.37,2013-02-27 15:20:00,
2013-02-27 09:25:00,26.9,22.4,29.89,WNW,295,3.5,3.5,83,0.00,OVC,OVC,0.00,WeatherDisplay:10.37,2013-02-27 15:25:00,
2013-02-27 09:30:00,27.0,22.5,29.89,WNW,287,5.8,5.8,83,0.00,OVC,OVC,0.00,WeatherDisplay:10.37,2013-02-27 15:30:00,
2013-02-27 09:35:00,27.1,22.6,29.90,NW,323,5.8,5.8,83,0.00,OVC,OVC,0.00,WeatherDisplay:10.37,2013-02-27 15:35:00,
2013-02-27 09:40:00,27.1,22.6,29.90,WNW,282,3.5,3.5,83,0.00,OVC,OVC,0.00,WeatherDisplay:10.37,2013-02-27 15:40:00,
2013-02-27 09:46:00,27.1,22.6,29.90,NW,319,10.4,10.4,83,0.00,OVC,OVC,0.00,WeatherDisplay:10.37,2013-02-27 15:46:00,
2013-02-27 09:51:00,27.1,22.6,29.90,WNW,289,7.0,7.0,83,0.00,OVC,OVC,0.00,WeatherDisplay:10.37,2013-02-27 15:51:00,
2013-02-27 09:56:00,27.2,22.7,29.90,WNW,300,5.8,5.8,83,0.00,OVC,OVC,0.00,WeatherDisplay:10.37,2013-02-27 15:56:00,
2013-02-27 10:02:00,27.3,22.8,29.90,WNW,295,5.8,5.8,83,0.00,OVC,OVC,0.00,WeatherDisplay:10.37,2013-02-27 16:02:00,
2013-02-27 10:07:00,27.4,22.9,29.91,WNW,302,7.0,7.0,83,0.00,OVC,OVC,0.00,WeatherDisplay:10.37,2013-02-27 16:07:00,
2013-02-27 10:12:00,27.3,22.8,29.91,NW,307,10.4,10.4,83,0.00,OVC,OVC,0.00,WeatherDisplay:10.37,2013-02-27 16:12:00,
2013-02-27 10:17:00,27.3,22.5,29.91,NW,325,6.0,6.0,82,0.00,OVC,OVC,0.00,WeatherDisplay:10.37,2013-02-27 16:17:00,
2013-02-27 10:22:00,27.5,23.0,29.91,North,9,4.6,4.6,83,0.00,OVC,OVC,0.00,WeatherDisplay:10.37,2013-02-27 16:22:00,
2013-02-27 10:28:00,27.4,22.6,29.91,NW,324,9.2,9.2,82,0.00,OVC,OVC,0.00,WeatherDisplay:10.37,2013-02-27 16:28:00,
2013-02-27 10:33:00,27.3,22.5,29.91,NW,311,10.4,10.4,82,0.00,OVC,OVC,0.00,WeatherDisplay:10.37,2013-02-27 16:33:00,
2013-02-27 10:38:00,27.4,22.6,29.92,NNW,327,9.0,9.0,82,0.00,OVC,OVC,0.00,WeatherDisplay:10.37,2013-02-27 16:38:00,
2013-02-27 10:43:00,27.5,22.7,29.91,North,355,5.8,5.8,82,0.00,OVC,OVC,0.00,WeatherDisplay:10.37,2013-02-27 16:43:00,
2013-02-27 10:49:00,27.4,22.6,29.92,WNW,300,5.8,5.8,82,0.00,OVC,OVC,0.00,WeatherDisplay:10.37,2013-02-27 16:49:00,
2013-02-27 10:54:00,27.4,22.6,29.92,North,355,3.5,3.5,82,0.00,OVC,OVC,0.00,WeatherDisplay:10.37,2013-02-27 16:54:00,
2013-02-27 10:59:00,27.5,22.7,29.92,North,10,9.2,9.2,82,0.00,OVC,OVC,0.00,WeatherDisplay:10.37,2013-02-27 16:59:00,
2013-02-27 11:04:00,27.5,22.7,29.91,NW,323,9.2,9.2,82,0.00,OVC,OVC,0.00,WeatherDisplay:10.37,2013-02-27 17:04:00,
2013-02-27 11:10:00,27.5,22.7,29.92,NW,325,6.9,6.9,82,0.00,OVC,OVC,0.00,WeatherDisplay:10.37,2013-02-27 17:10:00,
2013-02-27 11:15:00,27.5,22.7,29.92,NW,306,5.8,5.8,82,0.00,OVC,OVC,0.00,WeatherDisplay:10.37,2013-02-27 17:15:00,
2013-02-27 11:20:00,27.7,22.9,29.92,WNW,298,6.9,6.9,82,0.00,OVC,OVC,0.00,WeatherDisplay:10.37,2013-02-27 17:20:00,
2013-02-27 11:25:00,27.8,23.0,29.92,North,5,5.8,5.8,82,0.00,OVC,OVC,0.00,WeatherDisplay:10.37,2013-02-27 17:25:00,
2013-02-27 11:31:00,28.0,23.2,29.92,WNW,295,6.9,6.9,82,0.00,OVC,OVC,0.00,WeatherDisplay:10.37,2013-02-27 17:31:00,
2013-02-27 11:36:00,28.1,23.3,29.92,NNW,343,8.1,8.1,82,0.00,OVC,OVC,0.00,WeatherDisplay:10.37,2013-02-27 17:36:00,
2013-02-27 11:41:00,28.3,23.5,29.92,WNW,292,9.2,9.2,82,0.00,OVC,OVC,0.00,WeatherDisplay:10.37,2013-02-27 17:41:00,
2013-02-27 11:46:00,28.5,24.0,29.92,WNW,297,5.8,5.8,83,0.00,OVC,OVC,0.00,WeatherDisplay:10.37,2013-02-27 17:46:00,
2013-02-27 11:52:00,28.7,23.9,29.93,NW,309,9.2,9.2,82,0.00,OVC,OVC,0.00,WeatherDisplay:10.37,2013-02-27 17:52:00,
2013-02-27 11:57:00,28.7,23.9,29.93,WNW,285,5.8,5.8,82,0.00,OVC,OVC,0.00,WeatherDisplay:10.37,2013-02-27 17:57:00,
2013-02-27 12:02:00,28.6,23.8,29.93,WNW,300,9.2,9.2,82,0.00,OVC,OVC,0.00,WeatherDisplay:10.37,2013-02-27 18:02:00,
2013-02-27 12:08:00,28.5,23.7,29.93,WNW,303,6.9,6.9,82,0.00,OVC,OVC,0.00,WeatherDisplay:10.37,2013-02-27 18:08:00,
2013-02-27 12:13:00,28.6,23.8,29.93,NNW,346,4.6,4.6,82,0.00,OVC,OVC,0.00,WeatherDisplay:10.37,2013-02-27 18:13:00,
2013-02-27 12:18:00,28.7,23.9,29.92,NW,325,5.8,5.8,82,0.00,OVC,OVC,0.00,WeatherDisplay:10.37,2013-02-27 18:18:00,
2013-02-27 12:23:00,28.8,24.0,29.92,WNW,301,4.0,4.0,82,0.00,OVC,OVC,0.00,WeatherDisplay:10.37,2013-02-27 18:23:00,
2013-02-27 12:29:00,28.7,23.9,29.92,NW,317,5.8,5.8,82,0.00,OVC,OVC,0.00,WeatherDisplay:10.37,2013-02-27 18:29:00,
2013-02-27 12:34:00,28.7,23.9,29.92,NNW,341,2.3,2.3,82,0.00,OVC,OVC,0.00,WeatherDisplay:10.37,2013-02-27 18:34:00,
2013-02-27 12:39:00,28.8,24.0,29.92,WNW,296,6.9,6.9,82,0.00,OVC,OVC,0.00,WeatherDisplay:10.37,2013-02-27 18:39:00,
2013-02-27 12:45:00,28.7,23.9,29.92,WNW,290,5.8,5.8,82,0.00,OVC,OVC,0.00,WeatherDisplay:10.37,2013-02-27 18:45:00,
2013-02-27 12:50:00,28.8,24.0,29.92,West,279,10.4,10.4,82,0.00,OVC,OVC,0.00,WeatherDisplay:10.37,2013-02-27 18:50:00,
2013-02-27 12:55:00,28.8,23.7,29.92,NNW,329,7.0,7.0,81,0.00,OVC,OVC,0.00,WeatherDisplay:10.37,2013-02-27 18:55:00,
2013-02-27 13:00:00,28.7,23.6,29.92,WNW,283,9.2,9.2,81,0.00,OVC,OVC,0.00,WeatherDisplay:10.37,2013-02-27 19:00:00,
2013-02-27 13:06:00,28.6,23.5,29.92,WNW,289,5.8,5.8,81,0.00,OVC,OVC,0.00,WeatherDisplay:10.37,2013-02-27 19:06:00,
2013-02-27 13:11:00,28.6,23.5,29.92,WNW,284,6.9,6.9,81,0.00,OVC,OVC,0.00,WeatherDisplay:10.37,2013-02-27 19:11:00,
2013-02-27 13:16:00,28.6,23.5,29.92,NW,313,11.5,11.5,81,0.00,OVC,OVC,0.00,WeatherDisplay:10.37,2013-02-27 19:16:00,
2013-02-27 13:21:00,28.5,23.4,29.92,WNW,298,6.9,6.9,81,0.00,OVC,OVC,0.00,WeatherDisplay:10.37,2013-02-27 19:21:00,
2013-02-27 13:27:00,28.6,23.5,29.92,NW,313,10.4,10.4,81,0.00,OVC,OVC,0.00,WeatherDisplay:10.37,2013-02-27 19:27:00,
2013-02-27 13:32:00,28.6,23.5,29.92,WNW,299,9.2,9.2,81,0.00,OVC,OVC,0.00,WeatherDisplay:10.37,2013-02-27 19:32:00,
2013-02-27 13:37:00,28.7,23.6,29.92,NW,326,7.0,7.0,81,0.00,OVC,OVC,0.00,WeatherDisplay:10.37,2013-02-27 19:37:00,
2013-02-27 13:42:00,28.8,23.7,29.92,NNW,329,9.2,9.2,81,0.00,OVC,OVC,0.00,WeatherDisplay:10.37,2013-02-27 19:42:00,
2013-02-27 13:47:00,28.9,23.8,29.92,West,279,11.5,11.5,81,0.00,OVC,OVC,0.00,WeatherDisplay:10.37,2013-02-27 19:47:00,
2013-02-27 13:53:00,28.9,23.8,29.92,WNW,294,9.2,9.2,81,0.00,OVC,OVC,0.00,WeatherDisplay:10.37,2013-02-27 19:53:00,
2013-02-27 13:58:00,28.9,23.8,29.92,West,281,9.2,9.2,81,0.00,OVC,OVC,0.00,WeatherDisplay:10.37,2013-02-27 19:58:00,
2013-02-27 14:03:00,29.0,23.6,29.92,West,281,8.1,8.1,80,0.00,OVC,OVC,0.00,WeatherDisplay:10.37,2013-02-27 20:03:00,
2013-02-27 14:09:00,29.1,24.0,29.92,NW,315,5.0,5.0,81,0.00,OVC,OVC,0.00,WeatherDisplay:10.37,2013-02-27 20:09:00,
2013-02-27 14:14:00,29.1,23.7,29.92,NW,307,13.8,13.8,80,0.00,OVC,OVC,0.00,WeatherDisplay:10.37,2013-02-27 20:14:00,
2013-02-27 14:19:00,29.1,23.7,29.92,NNW,329,15.0,15.0,80,0.00,OVC,OVC,0.00,WeatherDisplay:10.37,2013-02-27 20:19:00,
2013-02-27 14:24:00,29.0,23.6,29.92,WNW,288,9.2,9.2,80,0.00,OVC,OVC,0.00,WeatherDisplay:10.37,2013-02-27 20:24:00,
2013-02-27 14:29:00,28.9,23.5,29.92,WNW,294,15.0,15.0,80,0.00,OVC,OVC,0.00,WeatherDisplay:10.37,2013-02-27 20:29:00,
2013-02-27 14:34:00,28.8,23.4,29.92,West,277,11.5,11.5,80,0.00,OVC,OVC,0.00,WeatherDisplay:10.37,2013-02-27 20:34:00,
2013-02-27 14:40:00,28.8,23.4,29.93,WNW,295,4.6,4.6,80,0.00,OVC,OVC,0.00,WeatherDisplay:10.37,2013-02-27 20:40:00,
2013-02-27 14:45:00,28.9,23.5,29.93,NNW,331,5.8,5.8,80,0.00,OVC,OVC,0.00,WeatherDisplay:10.37,2013-02-27 20:45:00,
2013-02-27 14:50:00,29.2,23.8,29.93,WNW,300,4.6,4.6,80,0.00,OVC,OVC,0.00,WeatherDisplay:10.37,2013-02-27 20:50:00,
2013-02-27 14:56:00,29.2,23.5,29.93,NW,304,11.5,11.5,79,0.00,OVC,OVC,0.00,WeatherDisplay:10.37,2013-02-27 20:56:00,
2013-02-27 15:01:00,29.1,23.4,29.93,NW,326,6.9,6.9,79,0.00,OVC,OVC,0.00,WeatherDisplay:10.37,2013-02-27 21:01:00,
2013-02-27 15:06:00,29.0,23.3,29.94,WNW,299,12.7,12.7,79,0.00,OVC,OVC,0.00,WeatherDisplay:10.37,2013-02-27 21:06:00,
2013-02-27 15:12:00,28.9,23.2,29.94,NNW,341,5.8,5.8,79,0.00,OVC,OVC,0.00,WeatherDisplay:10.37,2013-02-27 21:12:00,
2013-02-27 15:17:00,29.0,23.3,29.94,West,280,9.2,9.2,79,0.00,OVC,OVC,0.00,WeatherDisplay:10.37,2013-02-27 21:17:00,
2013-02-27 15:22:00,29.0,23.3,29.94,NNW,331,12.7,12.7,79,0.00,OVC,OVC,0.00,WeatherDisplay:10.37,2013-02-27 21:22:00,
2013-02-27 15:27:00,28.9,23.2,29.94,NW,316,6.9,6.9,79,0.00,OVC,OVC,0.00,WeatherDisplay:10.37,2013-02-27 21:27:00,
2013-02-27 15:32:00,29.0,23.3,29.94,NW,325,13.0,13.0,79,0.00,OVC,OVC,0.00,WeatherDisplay:10.37,2013-02-27 21:32:00,
2013-02-27 15:38:00,29.0,23.3,29.94,West,277,10.4,10.4,79,0.00,OVC,OVC,0.00,WeatherDisplay:10.37,2013-02-27 21:38:00,
2013-02-27 15:43:00,29.0,23.3,29.95,WNW,285,12.7,12.7,79,0.00,OVC,OVC,0.00,WeatherDisplay:10.37,2013-02-27 21:43:00,
2013-02-27 15:48:00,29.1,23.4,29.95,NNW,344,10.4,10.4,79,0.00,OVC,OVC,0.00,WeatherDisplay:10.37,2013-02-27 21:48:00,
2013-02-27 15:54:00,29.2,23.5,29.95,NNE,26,11.5,11.5,79,0.00,OVC,OVC,0.00,WeatherDisplay:10.37,2013-02-27 21:54:00,
2013-02-27 15:59:00,29.2,23.5,29.95,WNW,282,5.8,5.8,79,0.00,OVC,OVC,0.00,WeatherDisplay:10.37,2013-02-27 21:59:00,
2013-02-27 16:04:00,29.3,23.6,29.95,NNW,336,5.8,5.8,79,0.00,OVC,OVC,0.00,WeatherDisplay:10.37,2013-02-27 22:04:00,
2013-02-27 16:10:00,29.2,23.2,29.95,NNW,331,11.5,11.5,78,0.00,OVC,OVC,0.00,WeatherDisplay:10.37,2013-02-27 22:10:00,
2013-02-27 16:15:00,29.1,23.4,29.95,NNW,343,6.9,6.9,79,0.00,OVC,OVC,0.00,WeatherDisplay:10.37,2013-02-27 22:15:00,
2013-02-27 16:20:00,29.2,23.5,29.96,NW,320,11.5,11.5,79,0.00,OVC,OVC,0.00,WeatherDisplay:10.37,2013-02-27 22:20:00,
2013-02-27 16:25:00,29.2,23.2,29.96,NNW,348,11.5,11.5,78,0.00,OVC,OVC,0.00,WeatherDisplay:10.37,2013-02-27 22:25:00,
2013-02-27 16:30:00,29.3,23.3,29.96,NW,313,11.5,11.5,78,0.00,OVC,OVC,0.00,WeatherDisplay:10.37,2013-02-27 22:30:00,
2013-02-27 18:11:00,29.8,23.2,29.98,WNW,303,6.0,6.0,76,0.00,OVC,OVC,0.00,WeatherDisplay:10.37,2013-02-28 00:11:00,
2013-02-27 18:17:00,29.8,23.2,29.98,NW,311,9.2,9.2,76,0.00,OVC,OVC,0.00,WeatherDisplay:10.37,2013-02-28 00:17:00,
2013-02-27 18:22:00,29.8,23.2,29.98,NW,313,4.6,4.6,76,0.00,OVC,OVC,0.00,WeatherDisplay:10.37,2013-02-28 00:22:00,
2013-02-27 18:27:00,29.9,23.3,29.98,WNW,296,3.5,3.5,76,0.00,OVC,OVC,0.00,WeatherDisplay:10.37,2013-02-28 00:27:00,
2013-02-27 18:33:00,30.0,23.4,29.98,NW,311,3.5,3.5,76,0.00,OVC,OVC,0.00,WeatherDisplay:10.37,2013-02-28 00:33:00,
2013-02-27 18:38:00,30.1,23.4,29.98,NW,315,3.5,3.5,76,0.00,OVC,OVC,0.00,WeatherDisplay:10.37,2013-02-28 00:38:00,
2013-02-27 18:43:00,30.1,23.1,29.98,WNW,293,8.1,8.1,75,0.00,OVC,OVC,0.00,WeatherDisplay:10.37,2013-02-28 00:43:00,
2013-02-27 18:48:00,30.3,23.0,29.99,NW,309,5.8,5.8,74,0.00,OVC,OVC,0.00,WeatherDisplay:10.37,2013-02-28 00:48:00,
2013-02-27 18:53:00,30.4,23.1,29.99,NW,316,4.6,0.0,74,0.00,OVC,OVC,0.00,WeatherDisplay:10.37,2013-02-28 00:53:00,
2013-02-27 18:59:00,30.4,22.8,29.99,NW,325,4.6,4.6,73,0.00,OVC,OVC,0.00,WeatherDisplay:10.37,2013-02-28 00:59:00,
2013-02-27 19:04:00,30.4,22.8,29.99,NW,321,5.0,5.0,73,0.00,OVC,OVC,0.00,WeatherDisplay:10.37,2013-02-28 01:04:00,
2013-02-27 19:09:00,30.4,22.8,29.99,NW,312,3.5,3.5,73,0.00,OVC,OVC,0.00,WeatherDisplay:10.37,2013-02-28 01:09:00,
2013-02-27 19:14:00,30.4,22.8,29.99,WNW,296,4.0,4.0,73,0.00,OVC,OVC,0.00,WeatherDisplay:10.37,2013-02-28 01:14:00,
2013-02-27 19:19:00,30.4,22.8,30.00,NW,307,3.5,3.5,73,0.00,OVC,OVC,0.00,WeatherDisplay:10.37,2013-02-28 01:19:00,
2013-02-27 19:24:00,30.4,22.8,30.00,NNW,335,5.8,5.8,73,0.00,OVC,OVC,0.00,WeatherDisplay:10.37,2013-02-28 01:24:00,
2013-02-27 19:30:00,30.4,22.8,30.00,NW,306,4.6,4.6,73,0.00,OVC,OVC,0.00,WeatherDisplay:10.37,2013-02-28 01:30:00,
2013-02-27 19:35:00,30.4,22.8,30.00,NW,321,3.5,3.5,73,0.00,OVC,OVC,0.00,WeatherDisplay:10.37,2013-02-28 01:35:00,
2013-02-27 19:40:00,30.4,22.8,30.00,WNW,301,5.8,5.8,73,0.00,OVC,OVC,0.00,WeatherDisplay:10.37,2013-02-28 01:40:00,
2013-02-27 19:45:00,30.5,22.5,30.00,North,355,4.6,4.6,72,0.00,OVC,OVC,0.00,WeatherDisplay:10.37,2013-02-28 01:45:00,
2013-02-27 19:50:00,30.5,22.5,30.00,NNE,12,4.6,4.6,72,0.00,OVC,OVC,0.00,WeatherDisplay:10.37,2013-02-28 01:50:00,
2013-02-27 19:55:00,30.6,22.6,30.00,WNW,301,5.8,5.8,72,0.00,OVC,OVC,0.00,WeatherDisplay:10.37,2013-02-28 01:55:00,
2013-02-27 20:01:00,30.7,22.4,30.00,NW,304,11.5,11.5,71,0.00,OVC,OVC,0.00,WeatherDisplay:10.37,2013-02-28 02:01:00,
2013-02-27 20:06:00,30.8,22.5,30.00,NW,305,9.2,9.2,71,0.00,OVC,OVC,0.00,WeatherDisplay:10.37,2013-02-28 02:06:00,
2013-02-27 20:11:00,30.8,22.5,30.00,NW,324,5.8,5.8,71,0.00,OVC,OVC,0.00,WeatherDisplay:10.37,2013-02-28 02:11:00,
2013-02-27 20:16:00,30.8,22.5,30.00,NW,319,3.5,3.5,71,0.00,OVC,OVC,0.00,WeatherDisplay:10.37,2013-02-28 02:16:00,
2013-02-27 20:21:00,30.9,22.6,30.00,NNW,334,5.8,5.8,71,0.00,OVC,OVC,0.00,WeatherDisplay:10.37,2013-02-28 02:21:00,
2013-02-27 20:27:00,31.0,22.7,30.01,WNW,294,5.8,5.8,71,0.00,OVC,OVC,0.00,WeatherDisplay:10.37,2013-02-28 02:27:00,
2013-02-27 20:32:00,31.1,22.5,30.01,WNW,303,11.5,11.5,70,0.00,OVC,OVC,0.00,WeatherDisplay:10.37,2013-02-28 02:32:00,
2013-02-27 20:37:00,31.1,22.5,30.01,NW,320,5.8,5.8,70,0.00,OVC,OVC,0.00,WeatherDisplay:10.37,2013-02-28 02:37:00,
2013-02-27 20:42:00,31.2,22.5,30.01,NW,311,5.8,5.8,70,0.00,OVC,OVC,0.00,WeatherDisplay:10.37,2013-02-28 02:42:00,
2013-02-27 20:48:00,31.2,22.5,30.01,WNW,288,4.6,4.6,70,0.00,OVC,OVC,0.00,WeatherDisplay:10.37,2013-02-28 02:48:00,
2013-02-27 20:53:00,31.2,22.9,30.01,NNW,340,6.9,6.9,71,0.00,OVC,OVC,0.00,WeatherDisplay:10.37,2013-02-28 02:53:00,
2013-02-27 20:58:00,31.2,22.9,30.01,NW,312,3.5,3.5,71,0.00,OVC,OVC,0.00,WeatherDisplay:10.37,2013-02-28 02:58:00,
2013-02-27 21:03:00,31.2,22.9,30.01,NW,306,6.9,6.9,71,0.00,OVC,OVC,0.00,WeatherDisplay:10.37,2013-02-28 03:03:00,
2013-02-27 21:09:00,31.2,23.2,30.02,NNW,329,5.8,5.8,72,0.00,OVC,OVC,0.00,WeatherDisplay:10.37,2013-02-28 03:09:00,
2013-02-27 21:14:00,31.2,23.2,30.02,NW,324,4.6,4.6,72,0.00,OVC,OVC,0.00,WeatherDisplay:10.37,2013-02-28 03:14:00,
2013-02-27 21:19:00,31.2,23.2,30.02,NW,307,5.8,5.8,72,0.00,OVC,OVC,0.00,WeatherDisplay:10.37,2013-02-28 03:19:00,
2013-02-27 21:24:00,31.1,23.5,30.02,NW,315,11.5,11.5,73,0.00,OVC,OVC,0.00,WeatherDisplay:10.37,2013-02-28 03:24:00,
2013-02-27 21:29:00,30.8,23.2,30.02,WNW,283,12.7,12.7,73,0.00,OVC,OVC,0.00,WeatherDisplay:10.37,2013-02-28 03:29:00,
2013-02-27 21:35:00,30.6,23.0,30.02,NW,304,8.1,8.1,73,0.00,OVC,OVC,0.00,WeatherDisplay:10.37,2013-02-28 03:35:00,
2013-02-27 21:40:00,30.4,22.8,30.02,NW,315,9.2,9.2,73,0.00,OVC,OVC,0.00,WeatherDisplay:10.37,2013-02-28 03:40:00,
2013-02-27 21:45:00,30.2,22.6,30.03,WNW,292,4.6,4.6,73,0.00,OVC,OVC,0.00,WeatherDisplay:10.37,2013-02-28 03:45:00,
2013-02-27 21:51:00,30.0,22.7,30.03,NNW,338,10.4,10.4,74,0.00,OVC,OVC,0.00,WeatherDisplay:10.37,2013-02-28 03:51:00,
2013-02-27 21:56:00,29.8,22.2,30.03,WNW,297,4.6,4.6,73,0.00,OVC,OVC,0.00,WeatherDisplay:10.37,2013-02-28 03:56:00,
2013-02-27 22:01:00,29.7,22.4,30.03,NW,306,9.2,9.2,74,0.00,CLR,CLR,0.00,WeatherDisplay:10.37,2013-02-28 04:01:00,
2013-02-27 22:06:00,29.6,22.3,30.03,WNW,299,6.9,6.9,74,0.00,CLR,CLR,0.00,WeatherDisplay:10.37,2013-02-28 04:06:00,
2013-02-27 22:11:00,29.4,22.1,30.03,NNW,334,5.8,5.8,74,0.00,CLR,CLR,0.00,WeatherDisplay:10.37,2013-02-28 04:11:00,
2013-02-27 22:17:00,29.0,21.7,30.03,NNW,331,10.4,10.4,74,0.00,CLR,CLR,0.00,WeatherDisplay:10.37,2013-02-28 04:17:00,
2013-02-27 22:22:00,28.7,21.5,30.03,WNW,303,6.9,6.9,74,0.00,CLR,CLR,0.00,WeatherDisplay:10.37,2013-02-28 04:22:00,
2013-02-27 22:27:00,28.3,21.4,30.03,NW,307,10.4,10.4,75,0.00,CLR,CLR,0.00,WeatherDisplay:10.37,2013-02-28 04:27:00,
2013-02-27 22:33:00,28.0,21.1,30.04,North,11,6.9,6.9,75,0.00,CLR,CLR,0.00,WeatherDisplay:10.37,2013-02-28 04:33:00,
2013-02-27 22:38:00,27.8,21.2,30.04,West,272,11.0,11.0,76,0.00,CLR,CLR,0.00,WeatherDisplay:10.37,2013-02-28 04:38:00,
2013-02-27 22:43:00,27.7,21.1,30.04,NW,317,3.5,3.5,76,0.00,CLR,CLR,0.00,WeatherDisplay:10.37,2013-02-28 04:43:00,
2013-02-27 22:49:00,27.5,20.9,30.04,WNW,288,6.9,7.2,76,0.00,CLR,CLR,0.00,WeatherDisplay:10.37,2013-02-28 04:49:00,
2013-02-27 22:54:00,27.2,20.6,30.05,NW,321,10.4,10.4,76,0.00,CLR,CLR,0.00,WeatherDisplay:10.37,2013-02-28 04:54:00,
2013-02-27 22:59:00,26.9,20.3,30.05,WNW,292,15.0,15.0,76,0.00,CLR,CLR,0.00,WeatherDisplay:10.37,2013-02-28 04:59:00,
2013-02-27 23:00:00,26.9,20.3,30.05,NNW,346,15.0,15.0,76,0.00,CLR,CLR,0.00,WeatherDisplay:10.37,2013-02-28 05:00:00,
2013-02-27 23:02:00,26.9,20.3,30.05,NW,313,11.5,11.5,76,0.00,CLR,CLR,0.00,WeatherDisplay:10.37,2013-02-28 05:02:00,
2013-02-27 23:04:00,26.8,19.9,30.05,NW,316,11.5,11.5,75,0.00,CLR,CLR,0.00,WeatherDisplay:10.37,2013-02-28 05:04:00,
2013-02-27 23:05:00,26.8,19.9,30.05,West,268,11.5,11.5,75,0.00,CLR,CLR,0.00,WeatherDisplay:10.37,2013-02-28 05:05:00,
2013-02-27 23:10:00,26.5,19.6,30.05,NW,325,10.4,10.4,75,0.00,CLR,CLR,0.00,WeatherDisplay:10.37,2013-02-28 05:10:00,
2013-02-27 23:15:00,26.3,19.5,30.05,NW,304,9.2,9.2,75,0.00,CLR,CLR,0.00,WeatherDisplay:10.37,2013-02-28 05:15:00,
2013-02-27 23:20:00,26.1,19.3,30.05,WNW,302,3.5,3.5,75,0.00,CLR,CLR,0.00,WeatherDisplay:10.37,2013-02-28 05:20:00,
2013-02-27 23:26:00,26.0,19.2,30.05,NW,311,6.9,6.9,75,0.00,CLR,CLR,0.00,WeatherDisplay:10.37,2013-02-28 05:26:00,
2013-02-27 23:31:00,25.8,19.0,30.05,NW,314,5.8,5.8,75,0.00,CLR,CLR,0.00,WeatherDisplay:10.37,2013-02-28 05:31:00,
2013-02-27 23:36:00,25.6,18.8,30.05,NW,306,4.6,4.6,75,0.00,CLR,CLR,0.00,WeatherDisplay:10.37,2013-02-28 05:36:00,
2013-02-27 23:42:00,25.3,18.5,30.06,NW,311,6.9,6.9,75,0.00,CLR,CLR,0.00,WeatherDisplay:10.37,2013-02-28 05:42:00,
2013-02-27 23:47:00,25.1,18.3,30.06,NW,319,9.2,9.2,75,0.00,CLR,CLR,0.00,WeatherDisplay:10.37,2013-02-28 05:47:00,
2013-02-27 23:52:00,24.9,18.1,30.06,WNW,288,11.5,11.5,75,0.00,CLR,CLR,0.00,WeatherDisplay:10.37,2013-02-28 05:52:00,
2013-02-27 23:58:00,24.7,17.9,30.06,WNW,290,13.8,13.8,75,0.00,CLR,CLR,0.00,WeatherDisplay:10.37,2013-02-28 05:58:00,